createdAt,value
2018-03-02T00:00:32.034Z,0.00
2018-03-02T00:01:32.014Z,0.00
2018-03-02T00:02:31.991Z,0.00
2018-03-02T00:03:31.964Z,0.00
2018-03-02T00:04:31.946Z,0.00
2018-03-02T00:05:31.923Z,0.00
2018-03-02T00:06:31.906Z,0.00
2018-03-02T00:07:31.879Z,0.00
2018-03-02T00:08:31.857Z,0.00
2018-03-02T00:09:31.843Z,0.00
2018-03-02T00:10:31.812Z,0.00
2018-03-02T00:11:31.798Z,0.00
2018-03-02T00:12:31.771Z,0.00
2018-03-02T00:13:31.750Z,0.00
2018-03-02T00:14:31.736Z,0.00
2018-03-02T00:15:31.705Z,0.00
2018-03-02T00:16:31.692Z,0.00
2018-03-02T00:17:31.663Z,0.00
2018-03-02T00:18:31.641Z,0.00
2018-03-02T00:19:31.619Z,0.00
2018-03-02T00:20:31.604Z,0.00
2018-03-02T00:21:31.579Z,0.00
2018-03-02T00:22:31.557Z,0.00
2018-03-02T00:23:31.535Z,0.00
2018-03-02T00:24:31.517Z,0.00
2018-03-02T00:25:31.497Z,0.00
2018-03-02T00:26:31.476Z,0.00
2018-03-02T00:27:31.448Z,0.00
2018-03-02T00:28:31.432Z,0.00
2018-03-02T00:29:31.405Z,0.00
2018-03-02T00:30:31.384Z,0.00
2018-03-02T00:31:31.373Z,0.00
2018-03-02T00:32:31.343Z,0.00
2018-03-02T00:33:31.319Z,0.00
2018-03-02T00:34:31.299Z,0.00
2018-03-02T00:35:31.280Z,0.00
2018-03-02T00:36:31.253Z,0.00
2018-03-02T00:37:31.230Z,0.00
2018-03-02T00:38:31.209Z,0.00
2018-03-02T00:39:31.194Z,0.00
2018-03-02T00:40:31.172Z,0.00
2018-03-02T00:41:31.144Z,0.00
2018-03-02T00:42:31.123Z,0.00
2018-03-02T00:43:31.106Z,0.00
2018-03-02T00:44:31.080Z,0.00
2018-03-02T00:45:31.062Z,0.00
2018-03-02T00:46:31.034Z,0.00
2018-03-02T00:47:31.012Z,0.00
2018-03-02T00:48:30.995Z,0.00
2018-03-02T00:49:30.971Z,0.00
2018-03-02T00:50:30.954Z,0.00
2018-03-02T00:51:30.931Z,0.00
2018-03-02T00:52:30.905Z,0.00
2018-03-02T00:53:30.889Z,0.00
2018-03-02T00:54:30.871Z,0.00
2018-03-02T00:55:30.843Z,0.00
2018-03-02T00:56:30.825Z,0.00
2018-03-02T00:57:30.798Z,0.00
2018-03-02T00:58:30.781Z,0.00
2018-03-02T00:59:30.756Z,0.00
2018-03-02T01:00:30.733Z,0.00
2018-03-02T01:01:30.709Z,0.00
2018-03-02T01:02:30.689Z,0.00
2018-03-02T01:03:30.671Z,0.00
2018-03-02T01:04:30.647Z,0.00
2018-03-02T01:05:30.624Z,0.00
2018-03-02T01:06:30.602Z,0.00
2018-03-02T01:07:30.581Z,0.00
2018-03-02T01:08:30.566Z,0.00
2018-03-02T01:09:30.537Z,0.00
2018-03-02T01:10:30.526Z,0.00
2018-03-02T01:11:30.499Z,0.00
2018-03-02T01:12:30.473Z,0.00
2018-03-02T01:13:30.449Z,0.00
2018-03-02T01:14:30.433Z,0.00
2018-03-02T01:15:30.408Z,0.00
2018-03-02T01:16:30.388Z,0.00
2018-03-02T01:17:30.368Z,0.00
2018-03-02T01:18:30.348Z,0.00
2018-03-02T01:19:30.326Z,0.00
2018-03-02T01:20:30.300Z,0.00
2018-03-02T01:21:30.278Z,0.00
2018-03-02T01:22:30.257Z,0.00
2018-03-02T01:23:30.235Z,0.00
2018-03-02T01:24:30.215Z,0.00
2018-03-02T01:25:30.197Z,0.00
2018-03-02T01:26:30.172Z,0.00
2018-03-02T01:27:30.158Z,0.00
2018-03-02T01:28:30.131Z,0.00
2018-03-02T01:29:30.119Z,0.00
2018-03-02T01:30:30.089Z,0.00
2018-03-02T01:31:30.072Z,0.00
2018-03-02T01:32:30.042Z,0.00
2018-03-02T01:33:30.027Z,0.00
2018-03-02T01:34:30.009Z,0.00
2018-03-02T01:35:29.976Z,0.00
2018-03-02T01:36:29.956Z,0.00
2018-03-02T01:37:29.944Z,0.00
2018-03-02T01:38:29.913Z,0.00
2018-03-02T01:39:29.898Z,0.00
2018-03-02T01:40:29.872Z,0.00
2018-03-02T01:41:29.848Z,0.00
2018-03-02T01:42:29.828Z,0.00
2018-03-02T01:43:29.813Z,0.00
2018-03-02T01:44:29.785Z,0.00
2018-03-02T01:45:29.767Z,0.00
2018-03-02T01:46:29.742Z,0.00
2018-03-02T01:47:29.736Z,0.00
2018-03-02T01:48:29.698Z,0.00
2018-03-02T01:49:29.686Z,0.00
2018-03-02T01:50:29.656Z,0.00
2018-03-02T01:51:29.638Z,0.00
2018-03-02T01:52:29.613Z,0.00
2018-03-02T01:53:29.590Z,0.00
2018-03-02T01:54:29.568Z,0.00
2018-03-02T01:55:29.549Z,0.00
2018-03-02T01:56:29.526Z,0.00
2018-03-02T01:57:29.504Z,0.00
2018-03-02T01:58:29.488Z,0.00
2018-03-02T01:59:29.459Z,0.00
2018-03-02T02:00:29.440Z,0.00
2018-03-02T02:01:29.420Z,0.00
2018-03-02T02:02:29.409Z,0.00
2018-03-02T02:03:29.374Z,0.00
2018-03-02T02:04:29.350Z,0.00
2018-03-02T02:05:29.334Z,0.00
2018-03-02T02:06:29.313Z,0.00
2018-03-02T02:07:29.285Z,0.00
2018-03-02T02:08:29.265Z,0.00
2018-03-02T02:09:29.251Z,0.00
2018-03-02T02:10:29.222Z,0.00
2018-03-02T02:11:29.204Z,0.00
2018-03-02T02:12:29.177Z,0.00
2018-03-02T02:13:29.160Z,0.00
2018-03-02T02:14:29.133Z,0.00
2018-03-02T02:15:29.118Z,0.00
2018-03-02T02:16:29.089Z,0.00
2018-03-02T02:17:29.070Z,0.00
2018-03-02T02:18:29.047Z,0.00
2018-03-02T02:19:29.025Z,0.00
2018-03-02T02:20:29.006Z,0.00
2018-03-02T02:21:28.985Z,0.00
2018-03-02T02:22:28.971Z,0.00
2018-03-02T02:23:28.939Z,0.00
2018-03-02T02:24:28.917Z,0.00
2018-03-02T02:25:28.896Z,0.00
2018-03-02T02:26:28.873Z,0.00
2018-03-02T02:27:28.853Z,0.00
2018-03-02T02:28:28.832Z,0.00
2018-03-02T02:29:28.815Z,0.00
2018-03-02T02:30:28.789Z,0.00
2018-03-02T02:31:28.774Z,0.00
2018-03-02T02:32:28.748Z,0.00
2018-03-02T02:33:28.728Z,0.00
2018-03-02T02:34:28.703Z,0.00
2018-03-02T02:35:28.692Z,0.00
2018-03-02T02:36:28.665Z,0.00
2018-03-02T02:37:28.643Z,0.00
2018-03-02T02:38:28.621Z,0.00
2018-03-02T02:39:28.605Z,0.00
2018-03-02T02:40:28.573Z,0.00
2018-03-02T02:41:28.560Z,0.00
2018-03-02T02:42:28.530Z,0.00
2018-03-02T02:43:28.509Z,0.00
2018-03-02T02:44:28.488Z,0.00
2018-03-02T02:45:28.473Z,0.00
2018-03-02T02:46:28.445Z,0.00
2018-03-02T02:47:28.421Z,0.00
2018-03-02T02:48:28.407Z,0.00
2018-03-02T02:49:28.382Z,0.00
2018-03-02T02:50:28.365Z,0.00
2018-03-02T02:51:28.336Z,0.00
2018-03-02T02:52:28.317Z,0.00
2018-03-02T02:53:28.296Z,0.00
2018-03-02T02:54:28.272Z,0.00
2018-03-02T02:55:28.251Z,0.00
2018-03-02T02:56:28.230Z,0.00
2018-03-02T02:57:28.206Z,0.00
2018-03-02T02:58:28.208Z,0.00
2018-03-02T02:59:28.163Z,0.00
2018-03-02T03:00:28.139Z,0.00
2018-03-02T03:01:28.119Z,0.00
2018-03-02T03:02:28.099Z,0.00
2018-03-02T03:03:28.076Z,0.00
2018-03-02T03:04:28.053Z,0.00
2018-03-02T03:05:28.037Z,0.00
2018-03-02T03:06:28.010Z,0.00
2018-03-02T03:07:27.989Z,0.00
2018-03-02T03:08:27.966Z,0.00
2018-03-02T03:09:27.944Z,0.00
2018-03-02T03:10:27.929Z,0.00
2018-03-02T03:11:27.902Z,0.00
2018-03-02T03:12:27.880Z,0.00
2018-03-02T03:13:27.859Z,0.00
2018-03-02T03:14:27.837Z,0.00
2018-03-02T03:15:27.814Z,0.00
2018-03-02T03:16:27.792Z,0.00
2018-03-02T03:17:27.771Z,0.00
2018-03-02T03:18:27.754Z,0.00
2018-03-02T03:19:27.731Z,0.00
2018-03-02T03:20:27.709Z,0.00
2018-03-02T03:21:27.687Z,0.00
2018-03-02T03:22:27.660Z,0.00
2018-03-02T03:23:27.643Z,0.00
2018-03-02T03:24:27.620Z,0.00
2018-03-02T03:25:27.596Z,0.00
2018-03-02T03:26:27.573Z,0.00
2018-03-02T03:27:27.552Z,0.00
2018-03-02T03:28:27.528Z,0.00
2018-03-02T03:29:27.510Z,0.00
2018-03-02T03:30:27.485Z,0.00
2018-03-02T03:31:27.464Z,0.00
2018-03-02T03:32:27.445Z,0.00
2018-03-02T03:33:27.424Z,0.00
2018-03-02T03:34:27.396Z,0.00
2018-03-02T03:35:27.374Z,0.00
2018-03-02T03:36:27.357Z,0.00
2018-03-02T03:37:27.330Z,0.00
2018-03-02T03:38:27.312Z,0.00
2018-03-02T03:39:27.284Z,0.00
2018-03-02T03:40:27.259Z,0.00
2018-03-02T03:41:27.238Z,0.00
2018-03-02T03:42:27.215Z,0.00
2018-03-02T03:43:27.194Z,0.00
2018-03-02T03:44:27.174Z,0.00
2018-03-02T03:45:27.150Z,0.00
2018-03-02T03:46:27.132Z,0.00
2018-03-02T03:47:27.104Z,0.00
2018-03-02T03:48:27.086Z,0.00
2018-03-02T03:49:27.061Z,0.00
2018-03-02T03:50:27.040Z,0.00
2018-03-02T03:51:27.015Z,0.00
2018-03-02T03:52:26.994Z,0.00
2018-03-02T03:53:26.970Z,0.00
2018-03-02T03:54:26.953Z,0.00
2018-03-02T03:55:26.925Z,0.00
2018-03-02T03:56:26.903Z,0.00
2018-03-02T03:57:26.881Z,0.00
2018-03-02T03:58:26.860Z,0.00
2018-03-02T03:59:26.846Z,0.00
2018-03-02T04:00:26.816Z,0.00
2018-03-02T04:01:26.795Z,0.00
2018-03-02T04:02:26.770Z,0.00
2018-03-02T04:03:26.747Z,0.00
2018-03-02T04:04:26.726Z,0.00
2018-03-02T04:05:26.711Z,0.00
2018-03-02T04:06:26.681Z,0.00
2018-03-02T04:07:26.661Z,0.00
2018-03-02T04:08:26.636Z,0.00
2018-03-02T04:09:26.614Z,0.00
2018-03-02T04:10:26.592Z,0.00
2018-03-02T04:11:26.567Z,0.00
2018-03-02T04:12:26.546Z,0.00
2018-03-02T04:13:26.523Z,0.00
2018-03-02T04:14:26.501Z,0.00
2018-03-02T04:15:26.479Z,0.00
2018-03-02T04:16:26.458Z,0.00
2018-03-02T04:17:26.434Z,0.00
2018-03-02T04:18:26.417Z,0.00
2018-03-02T04:19:26.390Z,0.00
2018-03-02T04:20:26.366Z,0.00
2018-03-02T04:21:26.346Z,0.00
2018-03-02T04:22:26.329Z,0.00
2018-03-02T04:23:26.299Z,0.00
2018-03-02T04:24:26.284Z,0.00
2018-03-02T04:25:26.267Z,0.00
2018-03-02T04:26:26.237Z,0.00
2018-03-02T04:27:26.214Z,0.00
2018-03-02T04:28:26.186Z,0.00
2018-03-02T04:29:26.163Z,0.00
2018-03-02T04:30:26.157Z,0.00
2018-03-02T04:31:26.124Z,0.00
2018-03-02T04:32:26.101Z,0.00
2018-03-02T04:33:26.077Z,0.00
2018-03-02T04:34:26.050Z,0.00
2018-03-02T04:35:26.026Z,0.00
2018-03-02T04:36:26.003Z,0.00
2018-03-02T04:37:25.983Z,0.00
2018-03-02T04:38:25.958Z,0.00
2018-03-02T04:39:25.937Z,0.00
2018-03-02T04:40:25.912Z,0.00
2018-03-02T04:41:25.898Z,0.00
2018-03-02T04:42:25.873Z,0.00
2018-03-02T04:43:25.844Z,0.00
2018-03-02T04:44:25.822Z,0.00
2018-03-02T04:45:25.800Z,0.00
2018-03-02T04:46:25.778Z,0.00
2018-03-02T04:47:25.753Z,0.00
2018-03-02T04:48:25.732Z,0.00
2018-03-02T04:49:25.716Z,0.00
2018-03-02T04:50:25.692Z,0.00
2018-03-02T04:51:25.663Z,0.00
2018-03-02T04:52:25.642Z,0.00
2018-03-02T04:53:25.619Z,0.00
2018-03-02T04:54:25.603Z,0.00
2018-03-02T04:55:25.576Z,0.00
2018-03-02T04:56:25.553Z,0.00
2018-03-02T04:57:25.537Z,0.00
2018-03-02T04:58:25.514Z,0.00
2018-03-02T04:59:25.482Z,0.00
2018-03-02T05:00:25.460Z,0.00
2018-03-02T05:01:25.444Z,0.00
2018-03-02T05:02:25.415Z,0.00
2018-03-02T05:03:25.395Z,0.00
2018-03-02T05:04:25.370Z,0.00
2018-03-02T05:05:25.350Z,0.00
2018-03-02T05:06:25.326Z,0.00
2018-03-02T05:07:25.303Z,0.00
2018-03-02T05:08:25.300Z,0.00
2018-03-02T05:09:25.284Z,0.00
2018-03-02T05:10:25.236Z,0.00
2018-03-02T05:11:25.217Z,0.00
2018-03-02T05:12:25.194Z,0.00
2018-03-02T05:13:25.166Z,0.00
2018-03-02T05:14:25.157Z,0.00
2018-03-02T05:15:25.120Z,0.00
2018-03-02T05:16:25.102Z,0.00
2018-03-02T05:17:25.076Z,0.00
2018-03-02T05:18:25.057Z,0.00
2018-03-02T05:19:25.032Z,0.00
2018-03-02T05:20:25.007Z,0.00
2018-03-02T05:21:24.985Z,0.00
2018-03-02T05:22:24.963Z,0.00
2018-03-02T05:23:24.938Z,0.00
2018-03-02T05:24:24.914Z,0.00
2018-03-02T05:25:24.930Z,0.00
2018-03-02T05:26:24.872Z,0.00
2018-03-02T05:27:24.846Z,0.00
2018-03-02T05:28:24.834Z,0.00
2018-03-02T05:29:24.809Z,0.00
2018-03-02T05:30:24.787Z,0.00
2018-03-02T05:31:24.757Z,0.00
2018-03-02T05:32:24.733Z,0.00
2018-03-02T05:33:24.711Z,0.00
2018-03-02T05:34:24.688Z,0.00
2018-03-02T05:35:24.666Z,0.00
2018-03-02T05:36:24.642Z,0.00
2018-03-02T05:37:24.616Z,0.00
2018-03-02T05:38:24.598Z,0.00
2018-03-02T05:39:24.575Z,4.00
2018-03-02T05:40:24.554Z,4.00
2018-03-02T05:41:24.529Z,0.00
2018-03-02T05:42:24.509Z,4.00
2018-03-02T05:43:24.498Z,4.00
2018-03-02T05:44:24.479Z,0.00
2018-03-02T05:45:24.445Z,4.00
2018-03-02T05:46:24.424Z,4.00
2018-03-02T05:47:24.407Z,8.00
2018-03-02T05:48:24.370Z,8.00
2018-03-02T05:49:24.348Z,8.00
2018-03-02T05:50:24.324Z,8.00
2018-03-02T05:51:24.303Z,8.00
2018-03-02T05:52:24.278Z,12.00
2018-03-02T05:53:24.254Z,16.00
2018-03-02T05:54:24.236Z,16.00
2018-03-02T05:55:24.213Z,20.00
2018-03-02T05:56:24.186Z,24.00
2018-03-02T05:57:24.169Z,28.00
2018-03-02T05:58:24.143Z,32.00
2018-03-02T05:59:24.120Z,32.00
2018-03-02T06:00:24.104Z,40.00
2018-03-02T06:01:24.077Z,40.00
2018-03-02T06:02:24.049Z,48.00
2018-03-02T06:03:24.030Z,52.00
2018-03-02T06:04:24.001Z,64.00
2018-03-02T06:05:23.981Z,68.00
2018-03-02T06:06:23.961Z,72.00
2018-03-02T06:07:23.932Z,80.00
2018-03-02T06:08:23.910Z,88.00
2018-03-02T06:09:23.887Z,100.00
2018-03-02T06:10:23.866Z,108.00
2018-03-02T06:11:23.857Z,116.00
2018-03-02T06:12:23.828Z,120.00
2018-03-02T06:13:23.799Z,132.00
2018-03-02T06:14:23.789Z,144.00
2018-03-02T06:15:23.752Z,152.00
2018-03-02T06:16:23.736Z,164.00
2018-03-02T06:17:23.708Z,176.00
2018-03-02T06:18:23.690Z,192.00
2018-03-02T06:19:23.660Z,200.00
2018-03-02T06:20:23.643Z,216.00
2018-03-02T06:21:23.616Z,232.00
2018-03-02T06:22:23.598Z,244.00
2018-03-02T06:23:23.571Z,260.00
2018-03-02T06:24:23.552Z,276.00
2018-03-02T06:25:23.532Z,296.00
2018-03-02T06:26:23.501Z,316.00
2018-03-02T06:27:23.480Z,332.00
2018-03-02T06:28:23.455Z,356.00
2018-03-02T06:29:23.435Z,376.00
2018-03-02T06:30:23.410Z,392.00
2018-03-02T06:31:23.385Z,412.00
2018-03-02T06:32:23.365Z,432.00
2018-03-02T06:33:23.347Z,456.00
2018-03-02T06:34:23.322Z,476.00
2018-03-02T06:35:23.294Z,500.00
2018-03-02T06:36:23.272Z,524.00
2018-03-02T06:37:23.248Z,544.00
2018-03-02T06:38:23.226Z,568.00
2018-03-02T06:39:23.202Z,588.00
2018-03-02T06:40:23.181Z,608.00
2018-03-02T06:41:23.156Z,636.00
2018-03-02T06:42:23.134Z,660.00
2018-03-02T06:43:23.111Z,688.00
2018-03-02T06:44:23.088Z,712.00
2018-03-02T06:45:23.071Z,736.00
2018-03-02T06:46:23.044Z,756.00
2018-03-02T06:47:23.020Z,780.00
2018-03-02T06:48:23.006Z,808.00
2018-03-02T06:49:22.975Z,828.00
2018-03-02T06:50:22.953Z,852.00
2018-03-02T06:51:22.931Z,876.00
2018-03-02T06:52:22.911Z,904.00
2018-03-02T06:53:22.886Z,928.00
2018-03-02T06:54:22.863Z,948.00
2018-03-02T06:55:22.846Z,972.00
2018-03-02T06:56:22.816Z,992.00
2018-03-02T06:57:22.793Z,1016.00
2018-03-02T06:58:22.779Z,1032.00
2018-03-02T06:59:22.750Z,1056.00
2018-03-02T07:00:22.733Z,1076.00
2018-03-02T07:01:22.707Z,1100.00
2018-03-02T07:02:22.680Z,1124.00
2018-03-02T07:03:22.658Z,1144.00
2018-03-02T07:04:22.636Z,1168.00
2018-03-02T07:05:22.614Z,1188.00
2018-03-02T07:06:22.588Z,1204.00
2018-03-02T07:07:22.568Z,1228.00
2018-03-02T07:08:22.540Z,1248.00
2018-03-02T07:09:22.520Z,1276.00
2018-03-02T07:10:22.495Z,1300.00
2018-03-02T07:11:22.475Z,1324.00
2018-03-02T07:12:22.450Z,1352.00
2018-03-02T07:13:22.432Z,1380.00
2018-03-02T07:14:22.408Z,1408.00
2018-03-02T07:15:22.379Z,1432.00
2018-03-02T07:16:22.358Z,1452.00
2018-03-02T07:17:22.368Z,1476.00
2018-03-02T07:18:22.321Z,1504.00
2018-03-02T07:19:22.293Z,1524.00
2018-03-02T07:20:22.267Z,1544.00
2018-03-02T07:21:22.245Z,1560.00
2018-03-02T07:22:22.222Z,1588.00
2018-03-02T07:23:22.200Z,1616.00
2018-03-02T07:24:22.176Z,1652.00
2018-03-02T07:25:22.155Z,1696.00
2018-03-02T07:26:22.138Z,1728.00
2018-03-02T07:27:22.109Z,1764.00
2018-03-02T07:28:22.095Z,1788.00
2018-03-02T07:29:22.069Z,1812.00
2018-03-02T07:30:22.050Z,1840.00
2018-03-02T07:31:22.024Z,1860.00
2018-03-02T07:32:22.004Z,1892.00
2018-03-02T07:33:21.977Z,1920.00
2018-03-02T07:34:21.956Z,1944.00
2018-03-02T07:35:21.939Z,1972.00
2018-03-02T07:36:21.910Z,2000.00
2018-03-02T07:37:21.890Z,2032.00
2018-03-02T07:38:21.908Z,2048.00
2018-03-02T07:39:21.844Z,2072.00
2018-03-02T07:40:21.830Z,2096.00
2018-03-02T07:41:21.803Z,2128.00
2018-03-02T07:42:21.786Z,2156.00
2018-03-02T07:43:21.760Z,2188.00
2018-03-02T07:44:21.741Z,2212.00
2018-03-02T07:45:21.714Z,2216.00
2018-03-02T07:46:21.693Z,2248.00
2018-03-02T07:47:21.675Z,2276.00
2018-03-02T07:48:21.648Z,2308.00
2018-03-02T07:49:21.625Z,2316.00
2018-03-02T07:50:21.610Z,2336.00
2018-03-02T07:51:21.582Z,2356.00
2018-03-02T07:52:21.564Z,2368.00
2018-03-02T07:53:21.540Z,2388.00
2018-03-02T07:54:21.526Z,2400.00
2018-03-02T07:55:21.497Z,2416.00
2018-03-02T07:56:21.474Z,2432.00
2018-03-02T07:57:21.454Z,2436.00
2018-03-02T07:58:21.432Z,2456.00
2018-03-02T07:59:21.420Z,2464.00
2018-03-02T08:00:21.388Z,2484.00
2018-03-02T08:01:21.369Z,2500.00
2018-03-02T08:02:21.349Z,2496.00
2018-03-02T08:03:21.324Z,2520.00
2018-03-02T08:04:21.391Z,2548.00
2018-03-02T08:05:21.282Z,2572.00
2018-03-02T08:06:21.262Z,2580.00
2018-03-02T08:07:21.247Z,2588.00
2018-03-02T08:08:21.221Z,2592.00
2018-03-02T08:09:21.200Z,2636.00
2018-03-02T08:10:21.183Z,2648.00
2018-03-02T08:11:21.161Z,2704.00
2018-03-02T08:12:21.139Z,2688.00
2018-03-02T08:13:21.112Z,2684.00
2018-03-02T08:14:21.093Z,2680.00
2018-03-02T08:15:21.069Z,2580.00
2018-03-02T08:16:21.065Z,2712.00
2018-03-02T08:17:21.031Z,2756.00
2018-03-02T08:18:21.010Z,2780.00
2018-03-02T08:19:20.986Z,2736.00
2018-03-02T08:20:20.972Z,2796.00
2018-03-02T08:21:20.945Z,2816.00
2018-03-02T08:22:20.929Z,2804.00
2018-03-02T08:23:20.902Z,2792.00
2018-03-02T08:24:20.886Z,2800.00
2018-03-02T08:25:20.868Z,2816.00
2018-03-02T08:26:20.842Z,2828.00
2018-03-02T08:27:20.820Z,2844.00
2018-03-02T08:28:20.799Z,2868.00
2018-03-02T08:29:20.780Z,2888.00
2018-03-02T08:30:20.759Z,2904.00
2018-03-02T08:31:20.736Z,2912.00
2018-03-02T08:32:20.715Z,2916.00
2018-03-02T08:33:20.699Z,2940.00
2018-03-02T08:34:20.678Z,2940.00
2018-03-02T08:35:20.656Z,2964.00
2018-03-02T08:36:20.639Z,2980.00
2018-03-02T08:37:20.618Z,2992.00
2018-03-02T08:38:20.592Z,2992.00
2018-03-02T08:39:20.571Z,3004.00
2018-03-02T08:40:20.574Z,3032.00
2018-03-02T08:41:20.530Z,3052.00
2018-03-02T08:42:20.510Z,3076.00
2018-03-02T08:43:20.488Z,3116.00
2018-03-02T08:44:20.468Z,3124.00
2018-03-02T08:45:20.452Z,3120.00
2018-03-02T08:46:20.427Z,3108.00
2018-03-02T08:47:20.404Z,3104.00
2018-03-02T08:48:20.386Z,3128.00
2018-03-02T08:49:20.365Z,3160.00
2018-03-02T08:50:20.350Z,3180.00
2018-03-02T08:51:20.324Z,3192.00
2018-03-02T08:52:20.306Z,3200.00
2018-03-02T08:53:20.281Z,3200.00
2018-03-02T08:54:20.262Z,3216.00
2018-03-02T08:55:20.246Z,3204.00
2018-03-02T08:56:20.224Z,3232.00
2018-03-02T08:57:20.207Z,3260.00
2018-03-02T08:58:20.181Z,3276.00
2018-03-02T08:59:20.159Z,3260.00
2018-03-02T09:00:20.140Z,3268.00
2018-03-02T09:01:20.122Z,3268.00
2018-03-02T09:02:20.097Z,3288.00
2018-03-02T09:03:20.119Z,3316.00
2018-03-02T09:04:20.061Z,3336.00
2018-03-02T09:05:20.042Z,3352.00
2018-03-02T09:06:20.014Z,3332.00
2018-03-02T09:07:19.996Z,3316.00
2018-03-02T09:08:19.976Z,3328.00
2018-03-02T09:09:19.956Z,3344.00
2018-03-02T09:10:19.942Z,3364.00
2018-03-02T09:11:19.912Z,3380.00
2018-03-02T09:12:19.892Z,3392.00
2018-03-02T09:13:19.881Z,3420.00
2018-03-02T09:14:19.852Z,3432.00
2018-03-02T09:15:19.833Z,3452.00
2018-03-02T09:16:19.810Z,3476.00
2018-03-02T09:17:19.797Z,3492.00
2018-03-02T09:18:19.774Z,3496.00
2018-03-02T09:19:19.751Z,3512.00
2018-03-02T09:20:19.740Z,3532.00
2018-03-02T09:21:19.712Z,3548.00
2018-03-02T09:22:19.698Z,3572.00
2018-03-02T09:23:19.672Z,3580.00
2018-03-02T09:24:19.650Z,3588.00
2018-03-02T09:25:19.631Z,3624.00
2018-03-02T09:26:19.611Z,3660.00
2018-03-02T09:27:19.593Z,3676.00
2018-03-02T09:28:19.573Z,2924.00
2018-03-02T09:29:19.553Z,2908.00
2018-03-02T09:30:19.538Z,3128.00
2018-03-02T09:31:19.517Z,3588.00
2018-03-02T09:32:19.495Z,3692.00
2018-03-02T09:33:19.473Z,3820.00
2018-03-02T09:34:19.461Z,3880.00
2018-03-02T09:35:19.435Z,4044.00
2018-03-02T09:36:19.421Z,4248.00
2018-03-02T09:37:19.409Z,4508.00
2018-03-02T09:38:19.376Z,4732.00
2018-03-02T09:39:19.357Z,4992.00
2018-03-02T09:40:19.337Z,5224.00
2018-03-02T09:41:19.326Z,5476.00
2018-03-02T09:42:19.307Z,5420.00
2018-03-02T09:43:19.284Z,5252.00
2018-03-02T09:44:19.261Z,5308.00
2018-03-02T09:45:19.242Z,5220.00
2018-03-02T09:46:19.226Z,5020.00
2018-03-02T09:47:19.205Z,4876.00
2018-03-02T09:48:19.243Z,4820.00
2018-03-02T09:49:19.171Z,4740.00
2018-03-02T09:50:19.149Z,4560.00
2018-03-02T09:51:19.135Z,4416.00
2018-03-02T09:52:19.115Z,4280.00
2018-03-02T09:53:19.098Z,4200.00
2018-03-02T09:54:19.079Z,4140.00
2018-03-02T09:55:19.062Z,4116.00
2018-03-02T09:56:19.043Z,4100.00
2018-03-02T09:57:19.024Z,4092.00
2018-03-02T09:58:19.014Z,4088.00
2018-03-02T09:59:19.039Z,4092.00
2018-03-02T10:00:18.973Z,4112.00
2018-03-02T10:01:18.957Z,4148.00
2018-03-02T10:02:18.944Z,4184.00
2018-03-02T10:03:18.920Z,4268.00
2018-03-02T10:04:18.912Z,4296.00
2018-03-02T10:05:18.887Z,4288.00
2018-03-02T10:06:18.869Z,4276.00
2018-03-02T10:07:18.851Z,4328.00
2018-03-02T10:08:18.838Z,4336.00
2018-03-02T10:09:18.826Z,4256.00
2018-03-02T10:10:18.803Z,4248.00
2018-03-02T10:11:18.784Z,4108.00
2018-03-02T10:12:18.770Z,4012.00
2018-03-02T10:13:18.753Z,3920.00
2018-03-02T10:14:18.737Z,3828.00
2018-03-02T10:15:18.721Z,3752.00
2018-03-02T10:16:18.708Z,3712.00
2018-03-02T10:17:18.699Z,3676.00
2018-03-02T10:18:18.671Z,3628.00
2018-03-02T10:19:18.659Z,3588.00
2018-03-02T10:20:18.647Z,3572.00
2018-03-02T10:21:18.630Z,3564.00
2018-03-02T10:22:18.608Z,3548.00
2018-03-02T10:23:18.624Z,3536.00
2018-03-02T10:24:18.581Z,3516.00
2018-03-02T10:25:18.564Z,3508.00
2018-03-02T10:26:18.550Z,3496.00
2018-03-02T10:27:18.527Z,3484.00
2018-03-02T10:28:18.513Z,3472.00
2018-03-02T10:29:18.496Z,3468.00
2018-03-02T10:30:18.490Z,3472.00
2018-03-02T10:31:18.465Z,3504.00
2018-03-02T10:32:18.453Z,3572.00
2018-03-02T10:33:18.438Z,3680.00
2018-03-02T10:34:18.419Z,3860.00
2018-03-02T10:35:18.408Z,4184.00
2018-03-02T10:36:18.392Z,4748.00
2018-03-02T10:37:18.371Z,5220.00
2018-03-02T10:38:18.358Z,5416.00
2018-03-02T10:39:18.348Z,5788.00
2018-03-02T10:40:18.326Z,5856.00
2018-03-02T10:41:18.317Z,5976.00
2018-03-02T10:42:18.294Z,5712.00
2018-03-02T10:43:18.285Z,5732.00
2018-03-02T10:44:18.265Z,5844.00
2018-03-02T10:45:18.250Z,5768.00
2018-03-02T10:46:18.248Z,5740.00
2018-03-02T10:47:18.220Z,5592.00
2018-03-02T10:48:18.205Z,5332.00
2018-03-02T10:49:18.227Z,5268.00
2018-03-02T10:50:18.183Z,5288.00
2018-03-02T10:51:18.162Z,5100.00
2018-03-02T10:52:18.153Z,4964.00
2018-03-02T10:53:18.136Z,4884.00
2018-03-02T10:54:18.121Z,4688.00
2018-03-02T10:55:18.106Z,4548.00
2018-03-02T10:56:18.090Z,4460.00
2018-03-02T10:57:18.077Z,4240.00
2018-03-02T10:58:18.068Z,3968.00
2018-03-02T10:59:18.053Z,3728.00
2018-03-02T11:00:18.034Z,3508.00
2018-03-02T11:01:18.022Z,3288.00
2018-03-02T11:02:18.014Z,3148.00
2018-03-02T11:03:18.000Z,3044.00
2018-03-02T11:04:17.985Z,3052.00
2018-03-02T11:05:17.966Z,3076.00
2018-03-02T11:06:17.951Z,3056.00
2018-03-02T11:07:17.937Z,2968.00
2018-03-02T11:08:17.921Z,2840.00
2018-03-02T11:09:17.911Z,2752.00
2018-03-02T11:10:17.895Z,2692.00
2018-03-02T11:11:17.883Z,2624.00
2018-03-02T11:12:17.866Z,2568.00
2018-03-02T11:13:17.851Z,2548.00
2018-03-02T11:14:17.842Z,2560.00
2018-03-02T11:15:17.823Z,2620.00
2018-03-02T11:16:17.810Z,2636.00
2018-03-02T11:17:17.794Z,2592.00
2018-03-02T11:18:17.781Z,2532.00
2018-03-02T11:19:17.766Z,2480.00
2018-03-02T11:20:17.761Z,2436.00
2018-03-02T11:21:17.738Z,2404.00
2018-03-02T11:22:17.727Z,2380.00
2018-03-02T11:23:17.710Z,2348.00
2018-03-02T11:24:17.692Z,2344.00
2018-03-02T11:25:17.678Z,2344.00
2018-03-02T11:26:17.664Z,2348.00
2018-03-02T11:27:17.650Z,2344.00
2018-03-02T11:28:17.633Z,2300.00
2018-03-02T11:29:17.621Z,2248.00
2018-03-02T11:30:17.611Z,2160.00
2018-03-02T11:31:17.694Z,2060.00
2018-03-02T11:32:17.574Z,1988.00
2018-03-02T11:33:17.561Z,1936.00
2018-03-02T11:34:17.546Z,1888.00
2018-03-02T11:35:17.532Z,1856.00
2018-03-02T11:36:17.519Z,1828.00
2018-03-02T11:37:17.502Z,1816.00
2018-03-02T11:38:17.496Z,1804.00
2018-03-02T11:39:17.473Z,1776.00
2018-03-02T11:40:17.456Z,1764.00
2018-03-02T11:41:17.449Z,1788.00
2018-03-02T11:42:17.434Z,1828.00
2018-03-02T11:43:17.416Z,1852.00
2018-03-02T11:44:17.405Z,1844.00
2018-03-02T11:45:17.382Z,1820.00
2018-03-02T11:46:17.373Z,1752.00
2018-03-02T11:47:17.351Z,1628.00
2018-03-02T11:48:17.350Z,1528.00
2018-03-02T11:49:17.323Z,1464.00
2018-03-02T11:50:17.308Z,1436.00
2018-03-02T11:51:17.288Z,1428.00
2018-03-02T11:52:17.279Z,1416.00
2018-03-02T11:53:17.264Z,1400.00
2018-03-02T11:54:17.245Z,1392.00
2018-03-02T11:55:17.230Z,1404.00
2018-03-02T11:56:17.214Z,1412.00
2018-03-02T11:57:17.201Z,1396.00
2018-03-02T11:58:17.188Z,1368.00
2018-03-02T11:59:17.175Z,1320.00
2018-03-02T12:00:17.154Z,1272.00
2018-03-02T12:01:17.137Z,1244.00
2018-03-02T12:02:17.123Z,1244.00
2018-03-02T12:03:17.109Z,1252.00
2018-03-02T12:04:17.091Z,1276.00
2018-03-02T12:05:17.077Z,1300.00
2018-03-02T12:06:17.062Z,1316.00
2018-03-02T12:07:17.042Z,1328.00
2018-03-02T12:08:17.030Z,1328.00
2018-03-02T12:09:17.013Z,1328.00
2018-03-02T12:10:17.000Z,1356.00
2018-03-02T12:11:16.983Z,1380.00
2018-03-02T12:12:16.965Z,1380.00
2018-03-02T12:13:16.952Z,1368.00
2018-03-02T12:14:16.935Z,1312.00
2018-03-02T12:15:16.927Z,1272.00
2018-03-02T12:16:16.908Z,1248.00
2018-03-02T12:17:16.887Z,1216.00
2018-03-02T12:18:16.870Z,1192.00
2018-03-02T12:19:16.857Z,1188.00
2018-03-02T12:20:16.840Z,1200.00
2018-03-02T12:21:16.825Z,1196.00
2018-03-02T12:22:16.809Z,1180.00
2018-03-02T12:23:16.789Z,1156.00
2018-03-02T12:24:16.783Z,1132.00
2018-03-02T12:25:16.766Z,1116.00
2018-03-02T12:26:16.743Z,1104.00
2018-03-02T12:27:16.727Z,1084.00
2018-03-02T12:28:16.717Z,1056.00
2018-03-02T12:29:16.701Z,1032.00
2018-03-02T12:30:16.680Z,1016.00
2018-03-02T12:31:16.668Z,1008.00
2018-03-02T12:32:16.654Z,1000.00
2018-03-02T12:33:16.632Z,996.00
2018-03-02T12:34:16.615Z,976.00
2018-03-02T12:35:16.599Z,944.00
2018-03-02T12:36:16.583Z,924.00
2018-03-02T12:37:16.567Z,904.00
2018-03-02T12:38:16.556Z,880.00
2018-03-02T12:39:16.534Z,856.00
2018-03-02T12:40:16.619Z,836.00